createdAt,value
2019-05-02T00:00:46.409Z,8.91
2019-05-02T00:01:46.084Z,8.93
2019-05-02T00:02:46.152Z,8.88
2019-05-02T00:03:46.177Z,8.84
2019-05-02T00:04:46.231Z,8.84
2019-05-02T00:05:46.289Z,8.81
2019-05-02T00:06:46.359Z,8.71
2019-05-02T00:07:46.433Z,8.72
2019-05-02T00:08:46.402Z,8.58
2019-05-02T00:09:48.583Z,8.57
2019-05-02T00:10:46.529Z,8.48
2019-05-02T00:11:58.322Z,8.51
2019-05-02T00:12:46.611Z,8.47
2019-05-02T00:13:46.632Z,8.50
2019-05-02T00:14:46.698Z,8.42
2019-05-02T00:15:46.742Z,8.37
2019-05-02T00:16:49.414Z,8.32
2019-05-02T00:17:46.816Z,8.33
2019-05-02T00:18:46.861Z,8.28
2019-05-02T00:19:49.842Z,8.25
2019-05-02T00:20:46.972Z,8.29
2019-05-02T00:21:47.081Z,8.29
2019-05-02T00:22:48.130Z,8.29
2019-05-02T00:23:47.090Z,8.15
2019-05-02T00:24:47.130Z,8.20
2019-05-02T00:25:52.081Z,8.18
2019-05-02T00:26:47.223Z,8.20
2019-05-02T00:27:47.291Z,8.15
2019-05-02T00:28:47.911Z,8.15
2019-05-02T00:29:47.361Z,8.12
2019-05-02T00:30:47.419Z,8.18
2019-05-02T00:31:48.871Z,8.20
2019-05-02T00:32:47.493Z,8.10
2019-05-02T00:33:47.544Z,8.15
2019-05-02T00:34:47.585Z,8.17
2019-05-02T00:35:47.673Z,8.15
2019-05-02T00:36:47.697Z,8.17
2019-05-02T00:37:47.718Z,8.11
2019-05-02T00:38:47.765Z,8.12
2019-05-02T00:39:49.245Z,8.08
2019-05-02T00:40:47.865Z,8.03
2019-05-02T00:41:47.931Z,7.94
2019-05-02T00:42:47.954Z,7.90
2019-05-02T00:43:48.006Z,7.87
2019-05-02T00:44:48.307Z,7.92
2019-05-02T00:45:48.085Z,7.85
2019-05-02T00:46:48.174Z,7.87
2019-05-02T00:47:49.773Z,7.89
2019-05-02T00:48:48.223Z,7.90
2019-05-02T00:49:48.262Z,7.87
2019-05-02T00:50:50.627Z,7.89
2019-05-02T00:51:48.461Z,7.93
2019-05-02T00:52:48.391Z,7.94
2019-05-02T00:53:49.490Z,7.92
2019-05-02T00:54:48.490Z,8.00
2019-05-02T00:55:48.555Z,8.02
2019-05-02T00:56:48.631Z,8.07
2019-05-02T00:57:50.847Z,8.02
2019-05-02T00:58:48.738Z,8.07
2019-05-02T00:59:48.714Z,8.03
2019-05-02T01:00:52.839Z,7.99
2019-05-02T01:01:48.801Z,7.99
2019-05-02T01:02:48.907Z,7.90
2019-05-02T01:03:52.079Z,7.94
2019-05-02T01:04:48.939Z,7.93
2019-05-02T01:05:49.024Z,7.94
2019-05-02T01:06:50.701Z,7.90
2019-05-02T01:07:49.105Z,7.97
2019-05-02T01:08:49.113Z,7.94
2019-05-02T01:09:49.173Z,8.08
2019-05-02T01:10:52.166Z,8.17
2019-05-02T01:11:49.247Z,8.11
2019-05-02T01:12:49.361Z,8.11
2019-05-02T01:13:50.394Z,8.10
2019-05-02T01:14:49.431Z,8.11
2019-05-02T01:15:49.438Z,7.96
2019-05-02T01:16:53.882Z,8.07
2019-05-02T01:17:49.580Z,8.04
2019-05-02T01:18:49.564Z,7.93
2019-05-02T01:19:51.479Z,7.99
2019-05-02T01:20:49.650Z,7.92
2019-05-02T01:21:49.711Z,7.94
2019-05-02T01:22:52.194Z,7.92
2019-05-02T01:23:49.787Z,7.93
2019-05-02T01:24:49.836Z,7.96
2019-05-02T01:25:52.724Z,7.96
2019-05-02T01:26:49.923Z,7.96
2019-05-02T01:27:49.992Z,7.92
2019-05-02T01:28:54.246Z,7.85
2019-05-02T01:29:50.078Z,7.87
2019-05-02T01:30:50.109Z,7.82
2019-05-02T01:31:54.590Z,7.78
2019-05-02T01:32:50.261Z,7.77
2019-05-02T01:33:50.255Z,7.74
2019-05-02T01:34:54.426Z,7.79
2019-05-02T01:35:50.355Z,7.69
2019-05-02T01:36:50.369Z,7.78
2019-05-02T01:37:51.068Z,7.78
2019-05-02T01:38:50.500Z,7.82
2019-05-02T01:39:50.509Z,7.87
2019-05-02T01:40:53.086Z,7.79
2019-05-02T01:41:50.597Z,7.81
2019-05-02T01:42:51.100Z,7.82
2019-05-02T01:43:54.995Z,7.67
2019-05-02T01:44:50.734Z,7.63
2019-05-02T01:45:50.778Z,7.74
2019-05-02T01:46:54.077Z,7.75
2019-05-02T01:47:50.871Z,7.74
2019-05-02T01:48:50.938Z,7.75
2019-05-02T01:49:51.936Z,7.72
2019-05-02T01:50:51.004Z,7.74
2019-05-02T01:51:51.055Z,7.74
2019-05-02T01:52:53.745Z,7.71
2019-05-02T01:53:51.301Z,7.72
2019-05-02T01:54:51.176Z,7.77
2019-05-02T01:55:51.898Z,7.69
2019-05-02T01:56:51.278Z,7.63
2019-05-02T01:57:51.310Z,7.63
2019-05-02T01:58:53.125Z,7.60
2019-05-02T01:59:51.410Z,7.60
2019-05-02T02:00:51.449Z,7.63
2019-05-02T02:01:53.106Z,7.47
2019-05-02T02:02:51.535Z,7.49
2019-05-02T02:03:51.602Z,7.44
2019-05-02T02:04:52.116Z,7.42
2019-05-02T02:05:51.673Z,7.44
2019-05-02T02:06:51.743Z,7.49
2019-05-02T02:07:55.625Z,7.45
2019-05-02T02:08:51.809Z,7.50
2019-05-02T02:09:51.871Z,7.41
2019-05-02T02:10:56.067Z,7.38
2019-05-02T02:11:51.941Z,7.40
2019-05-02T02:13:03.677Z,7.41
2019-05-02T02:13:52.032Z,7.44
2019-05-02T02:14:53.442Z,7.31
2019-05-02T02:15:52.131Z,7.32
2019-05-02T02:16:52.163Z,7.32
2019-05-02T02:17:52.670Z,7.29
2019-05-02T02:18:52.252Z,7.24
2019-05-02T02:19:52.327Z,7.22
2019-05-02T02:20:52.343Z,7.15
2019-05-02T02:21:52.417Z,7.19
2019-05-02T02:22:52.438Z,7.13
2019-05-02T02:23:52.488Z,7.13
2019-05-02T02:24:55.942Z,7.09
2019-05-02T02:25:52.617Z,7.02
2019-05-02T02:26:52.611Z,7.07
2019-05-02T02:27:54.896Z,7.05
2019-05-02T02:28:52.698Z,7.07
2019-05-02T02:29:52.766Z,7.05
2019-05-02T02:30:57.865Z,6.91
2019-05-02T02:31:52.829Z,6.97
2019-05-02T02:32:52.878Z,6.90
2019-05-02T02:33:52.924Z,6.90
2019-05-02T02:34:52.996Z,6.81
2019-05-02T02:35:53.030Z,6.89
2019-05-02T02:36:53.056Z,6.79
2019-05-02T02:37:55.704Z,6.83
2019-05-02T02:38:53.166Z,6.79
2019-05-02T02:39:54.206Z,6.76
2019-05-02T02:40:53.232Z,6.73
2019-05-02T02:41:54.242Z,6.76
2019-05-02T02:42:53.329Z,6.77
2019-05-02T02:43:54.639Z,6.76
2019-05-02T02:44:53.471Z,6.76
2019-05-02T02:45:57.804Z,6.73
2019-05-02T02:46:53.500Z,6.76
2019-05-02T02:47:59.935Z,6.79
2019-05-02T02:48:53.617Z,6.72
2019-05-02T02:49:56.009Z,6.63
2019-05-02T02:50:53.692Z,6.65
2019-05-02T02:51:57.949Z,6.61
2019-05-02T02:52:53.766Z,6.69
2019-05-02T02:54:02.871Z,6.69
2019-05-02T02:54:53.865Z,6.61
2019-05-02T02:56:01.107Z,6.61
2019-05-02T02:56:53.982Z,6.63
2019-05-02T02:57:58.587Z,6.62
2019-05-02T02:58:54.034Z,6.66
2019-05-02T03:00:06.635Z,6.66
2019-05-02T03:00:54.139Z,6.69
2019-05-02T03:01:54.186Z,6.61
2019-05-02T03:02:54.210Z,6.59
2019-05-02T03:03:54.263Z,6.50
2019-05-02T03:04:54.305Z,6.61
2019-05-02T03:05:58.544Z,6.59
2019-05-02T03:06:54.411Z,6.62
2019-05-02T03:07:59.700Z,6.65
2019-05-02T03:08:54.468Z,6.61
2019-05-02T03:09:59.670Z,6.53
2019-05-02T03:10:54.557Z,6.58
2019-05-02T03:11:56.354Z,6.50
2019-05-02T03:12:54.650Z,6.53
2019-05-02T03:14:05.747Z,6.61
2019-05-02T03:14:54.735Z,6.56
2019-05-02T03:16:00.350Z,6.47
2019-05-02T03:16:54.869Z,6.53
2019-05-02T03:17:59.881Z,6.58
2019-05-02T03:18:54.907Z,6.58
2019-05-02T03:20:01.095Z,6.51
2019-05-02T03:20:54.998Z,6.56
2019-05-02T03:22:00.797Z,6.59
2019-05-02T03:22:55.122Z,6.58
2019-05-02T03:24:03.452Z,6.53
2019-05-02T03:24:55.178Z,6.56
2019-05-02T03:25:55.235Z,6.65
2019-05-02T03:26:55.826Z,6.59
2019-05-02T03:27:55.314Z,6.58
2019-05-02T03:28:58.460Z,6.66
2019-05-02T03:29:55.402Z,6.63
2019-05-02T03:30:55.445Z,6.63
2019-05-02T03:32:11.934Z,6.61
2019-05-02T03:33:06.347Z,6.59
2019-05-02T03:34:00.719Z,6.62
2019-05-02T03:34:55.615Z,6.62
2019-05-02T03:35:55.660Z,6.65
2019-05-02T03:37:03.480Z,6.63
2019-05-02T03:37:55.773Z,6.61
2019-05-02T03:38:55.790Z,6.66
2019-05-02T03:39:58.027Z,6.65
2019-05-02T03:40:55.878Z,6.58
2019-05-02T03:42:02.957Z,6.53
2019-05-02T03:42:55.999Z,6.61
2019-05-02T03:44:09.806Z,6.59
2019-05-02T03:45:03.632Z,6.56
2019-05-02T03:45:56.101Z,6.53
2019-05-02T03:47:02.340Z,6.56
2019-05-02T03:47:56.241Z,6.62
2019-05-02T03:49:05.858Z,6.59
2019-05-02T03:49:56.276Z,6.59
2019-05-02T03:50:56.314Z,6.58
2019-05-02T03:52:02.802Z,6.46
2019-05-02T03:52:56.449Z,6.48
2019-05-02T03:54:06.117Z,6.46
2019-05-02T03:54:56.495Z,6.51
2019-05-02T03:55:56.538Z,6.44
2019-05-02T03:56:56.587Z,6.46
2019-05-02T03:57:56.756Z,6.44
2019-05-02T03:58:58.187Z,6.47
2019-05-02T03:59:56.709Z,6.46
2019-05-02T04:01:01.678Z,6.40
2019-05-02T04:01:56.813Z,6.41
2019-05-02T04:03:00.340Z,6.47
2019-05-02T04:03:56.897Z,6.47
2019-05-02T04:05:00.664Z,6.43
2019-05-02T04:05:56.977Z,6.46
2019-05-02T04:07:01.161Z,6.35
2019-05-02T04:07:57.174Z,6.36
2019-05-02T04:09:00.008Z,6.33
2019-05-02T04:09:57.152Z,6.35
2019-05-02T04:10:59.533Z,6.32
2019-05-02T04:11:57.241Z,6.32
2019-05-02T04:12:58.424Z,6.33
2019-05-02T04:13:57.382Z,6.26
2019-05-02T04:14:57.452Z,6.33
2019-05-02T04:15:57.422Z,6.30
2019-05-02T04:16:57.454Z,6.33
2019-05-02T04:17:57.501Z,6.38
2019-05-02T04:18:58.385Z,6.35
2019-05-02T04:19:57.588Z,6.36
2019-05-02T04:20:57.631Z,6.28
2019-05-02T04:22:01.722Z,6.40
2019-05-02T04:22:57.720Z,6.40
2019-05-02T04:24:06.660Z,6.35
2019-05-02T04:24:57.818Z,6.38
2019-05-02T04:25:57.851Z,6.36
2019-05-02T04:26:57.920Z,6.33
2019-05-02T04:27:57.938Z,6.35
2019-05-02T04:28:58.028Z,6.36
2019-05-02T04:30:09.715Z,6.38
2019-05-02T04:30:58.063Z,6.41
2019-05-02T04:31:58.122Z,6.36
2019-05-02T04:32:58.213Z,6.36
2019-05-02T04:33:58.229Z,6.35
2019-05-02T04:34:58.269Z,6.46
2019-05-02T04:35:59.494Z,6.44
2019-05-02T04:37:01.185Z,6.38
2019-05-02T04:38:01.604Z,6.46
2019-05-02T04:38:59.597Z,6.46
2019-05-02T04:40:03.010Z,6.46
2019-05-02T04:40:59.156Z,6.46
2019-05-02T04:42:04.758Z,6.43
2019-05-02T04:43:02.074Z,6.46
2019-05-02T04:44:01.416Z,6.41
2019-05-02T04:45:14.236Z,6.48
2019-05-02T04:46:00.182Z,6.46
2019-05-02T04:47:02.641Z,6.47
2019-05-02T04:48:03.782Z,6.46
2019-05-02T04:48:59.075Z,6.48
2019-05-02T04:49:58.904Z,6.50
2019-05-02T04:51:08.850Z,6.50
2019-05-02T04:52:05.896Z,6.51
2019-05-02T04:52:59.344Z,6.48
2019-05-02T04:53:59.098Z,6.51
2019-05-02T04:55:08.149Z,6.58
2019-05-02T04:56:04.912Z,6.62
2019-05-02T04:57:02.548Z,6.58
2019-05-02T04:58:01.702Z,6.61
2019-05-02T04:59:01.811Z,6.53
2019-05-02T05:00:06.534Z,6.40
2019-05-02T05:01:01.829Z,6.51
2019-05-02T05:02:01.356Z,6.53
2019-05-02T05:02:59.516Z,6.47
2019-05-02T05:04:03.150Z,6.59
2019-05-02T05:04:59.583Z,6.51
2019-05-02T05:06:07.299Z,6.51
2019-05-02T05:07:01.185Z,6.48
2019-05-02T05:07:59.692Z,6.62
2019-05-02T05:09:04.107Z,6.63
2019-05-02T05:10:03.131Z,6.71
2019-05-02T05:10:59.831Z,6.65
2019-05-02T05:12:02.480Z,6.73
2019-05-02T05:12:59.909Z,6.72
2019-05-02T05:14:00.390Z,6.73
2019-05-02T05:15:00.488Z,6.83
2019-05-02T05:16:02.889Z,6.83
2019-05-02T05:17:00.090Z,6.94
2019-05-02T05:18:04.640Z,6.79
2019-05-02T05:19:00.227Z,6.94
2019-05-02T05:20:00.266Z,6.95
2019-05-02T05:21:00.290Z,6.91
2019-05-02T05:22:04.890Z,6.99
2019-05-02T05:23:00.370Z,7.05
2019-05-02T05:24:01.465Z,7.02
2019-05-02T05:25:00.443Z,7.12
2019-05-02T05:26:03.423Z,7.13
2019-05-02T05:27:00.542Z,7.15
2019-05-02T05:28:05.627Z,7.09
2019-05-02T05:29:00.625Z,7.09
2019-05-02T05:30:07.958Z,7.19
2019-05-02T05:31:00.734Z,7.15
2019-05-02T05:32:05.540Z,7.22
2019-05-02T05:33:00.807Z,7.24
2019-05-02T05:34:00.865Z,7.22
2019-05-02T05:35:03.237Z,7.29
2019-05-02T05:36:00.950Z,7.34
2019-05-02T05:37:03.608Z,7.41
2019-05-02T05:38:01.021Z,7.49
2019-05-02T05:39:03.026Z,7.45
2019-05-02T05:40:01.112Z,7.63
2019-05-02T05:41:02.984Z,7.74
2019-05-02T05:42:01.195Z,7.84
2019-05-02T05:43:02.715Z,7.92
2019-05-02T05:44:01.294Z,8.03
2019-05-02T05:45:03.969Z,8.12
2019-05-02T05:46:09.326Z,8.18
2019-05-02T05:47:01.442Z,8.37
2019-05-02T05:48:01.470Z,8.48
2019-05-02T05:49:01.520Z,8.65
2019-05-02T05:50:01.559Z,8.76
2019-05-02T05:51:01.928Z,8.88
2019-05-02T05:52:03.796Z,9.04
2019-05-02T05:53:01.693Z,9.21
2019-05-02T05:54:03.199Z,9.35
2019-05-02T05:55:04.781Z,9.38
2019-05-02T05:56:02.587Z,9.50
2019-05-02T05:57:01.889Z,9.48
2019-05-02T05:58:12.267Z,9.58
2019-05-02T05:59:01.973Z,9.67
2019-05-02T06:00:03.816Z,9.68
2019-05-02T06:01:02.049Z,9.78
2019-05-02T06:02:05.561Z,9.79
2019-05-02T06:03:12.977Z,9.76
2019-05-02T06:04:02.199Z,9.91
2019-05-02T06:05:03.723Z,9.85
2019-05-02T06:06:02.278Z,9.85
2019-05-02T06:07:03.325Z,9.83
2019-05-02T06:08:02.375Z,9.83
2019-05-02T06:09:02.433Z,9.89
2019-05-02T06:10:07.863Z,10.12
2019-05-02T06:11:02.503Z,10.07
2019-05-02T06:12:02.681Z,10.15
2019-05-02T06:13:05.146Z,10.21
2019-05-02T06:14:02.643Z,10.44
2019-05-02T06:15:03.814Z,10.47
2019-05-02T06:16:03.424Z,10.47
2019-05-02T06:17:02.817Z,10.58
2019-05-02T06:18:04.850Z,10.51
2019-05-02T06:19:02.900Z,10.51
2019-05-02T06:20:02.923Z,10.46
2019-05-02T06:21:03.188Z,10.58
2019-05-02T06:22:03.031Z,10.60
2019-05-02T06:23:03.079Z,10.62
2019-05-02T06:24:03.114Z,10.60
2019-05-02T06:25:08.079Z,10.60
2019-05-02T06:26:08.075Z,10.60
2019-05-02T06:27:03.262Z,10.63
2019-05-02T06:28:05.196Z,10.73
2019-05-02T06:29:03.334Z,10.78
2019-05-02T06:30:03.379Z,10.80
2019-05-02T06:31:07.278Z,10.83
2019-05-02T06:32:03.519Z,10.83
2019-05-02T06:33:03.547Z,10.89
2019-05-02T06:34:07.198Z,10.98
2019-05-02T06:35:03.614Z,11.03
2019-05-02T06:36:03.668Z,11.14
2019-05-02T06:37:08.000Z,11.20
2019-05-02T06:38:03.757Z,11.25
2019-05-02T06:39:03.807Z,11.34
2019-05-02T06:40:08.143Z,11.38
2019-05-02T06:41:03.892Z,11.62
2019-05-02T06:42:03.959Z,11.85
2019-05-02T06:43:04.179Z,12.38
2019-05-02T06:44:04.066Z,13.15
2019-05-02T06:45:04.090Z,13.91
2019-05-02T06:46:15.401Z,14.56
2019-05-02T06:47:04.548Z,15.15
2019-05-02T06:48:04.260Z,15.67
2019-05-02T06:49:04.275Z,16.04
2019-05-02T06:50:04.334Z,16.14
2019-05-02T06:51:04.427Z,16.53
2019-05-02T06:52:04.436Z,16.34
2019-05-02T06:53:09.436Z,16.23
2019-05-02T06:54:04.590Z,16.65
2019-05-02T06:55:04.562Z,16.78
2019-05-02T06:56:07.990Z,16.18
2019-05-02T06:57:04.662Z,15.92
2019-05-02T06:58:08.065Z,15.46
2019-05-02T06:59:04.759Z,15.28
2019-05-02T07:00:06.611Z,15.72
2019-05-02T07:01:04.855Z,14.93
2019-05-02T07:02:04.914Z,14.67
2019-05-02T07:03:09.632Z,14.95
2019-05-02T07:04:05.032Z,15.57
2019-05-02T07:05:05.053Z,16.04
2019-05-02T07:06:07.513Z,16.45
2019-05-02T07:07:05.155Z,16.93
2019-05-02T07:08:06.564Z,17.33
2019-05-02T07:09:05.357Z,16.60
2019-05-02T07:10:07.341Z,16.63
2019-05-02T07:11:05.362Z,16.71
2019-05-02T07:12:05.416Z,17.23
2019-05-02T07:13:10.684Z,17.38
2019-05-02T07:14:12.898Z,17.17
2019-05-02T07:15:08.198Z,17.00
2019-05-02T07:16:10.267Z,16.83
2019-05-02T07:17:05.982Z,16.90
2019-05-02T07:18:10.756Z,16.23
2019-05-02T07:19:05.777Z,16.11
2019-05-02T07:20:05.917Z,16.03
2019-05-02T07:21:05.844Z,15.92
2019-05-02T07:22:05.892Z,15.86
2019-05-02T07:23:10.635Z,16.30
2019-05-02T07:24:06.015Z,16.50
2019-05-02T07:25:06.848Z,16.95
2019-05-02T07:26:06.111Z,17.41
2019-05-02T07:27:06.174Z,17.85
2019-05-02T07:28:09.421Z,18.21
2019-05-02T07:29:06.279Z,18.03
2019-05-02T07:30:06.290Z,17.25
2019-05-02T07:31:06.397Z,16.89
2019-05-02T07:32:06.432Z,16.22
2019-05-02T07:33:06.444Z,16.15
2019-05-02T07:34:08.032Z,15.88
2019-05-02T07:35:06.552Z,15.85
2019-05-02T07:36:06.602Z,16.11
2019-05-02T07:37:08.340Z,15.67
2019-05-02T07:38:06.699Z,15.75
2019-05-02T07:39:06.778Z,15.79
2019-05-02T07:40:06.793Z,16.18
2019-05-02T07:41:06.849Z,16.33
2019-05-02T07:42:07.943Z,16.80
2019-05-02T07:43:06.963Z,16.37
2019-05-02T07:44:07.019Z,15.82
2019-05-02T07:45:09.416Z,15.84
2019-05-02T07:46:07.103Z,15.97
2019-05-02T07:47:07.187Z,16.22
2019-05-02T07:48:07.196Z,16.80
2019-05-02T07:49:07.248Z,16.93
2019-05-02T07:50:10.358Z,17.30
2019-05-02T07:51:07.349Z,17.50
2019-05-02T07:52:07.398Z,17.91
2019-05-02T07:53:09.668Z,18.34
2019-05-02T07:54:07.501Z,18.74
2019-05-02T07:55:10.031Z,18.86
2019-05-02T07:56:07.601Z,18.82
2019-05-02T07:57:07.692Z,19.31
2019-05-02T07:58:08.250Z,19.72
2019-05-02T07:59:07.758Z,19.87
2019-05-02T08:00:07.829Z,20.02
2019-05-02T08:01:08.021Z,19.83
2019-05-02T08:02:07.907Z,20.27
2019-05-02T08:03:07.954Z,19.42
2019-05-02T08:04:11.219Z,19.57
2019-05-02T08:05:08.978Z,19.13
2019-05-02T08:06:08.118Z,19.33
2019-05-02T08:07:08.158Z,19.70
2019-05-02T08:08:08.209Z,20.38
2019-05-02T08:09:09.212Z,19.43
2019-05-02T08:10:08.349Z,19.25
2019-05-02T08:11:08.366Z,19.31
2019-05-02T08:12:08.415Z,19.29
2019-05-02T08:13:12.072Z,19.32
2019-05-02T08:14:08.518Z,18.64
2019-05-02T08:15:13.129Z,18.12
2019-05-02T08:16:08.623Z,18.67
2019-05-02T08:17:16.314Z,18.49
2019-05-02T08:18:08.737Z,18.86
2019-05-02T08:19:08.774Z,19.32
2019-05-02T08:20:08.852Z,19.23
2019-05-02T08:21:08.893Z,18.90
2019-05-02T08:22:13.361Z,18.73
2019-05-02T08:23:08.983Z,18.04
2019-05-02T08:24:09.117Z,17.10
2019-05-02T08:25:10.907Z,16.93
2019-05-02T08:26:09.156Z,17.25
2019-05-02T08:27:09.190Z,16.65
2019-05-02T08:28:10.019Z,16.99
2019-05-02T08:29:09.293Z,16.04
2019-05-02T08:30:09.346Z,15.70
2019-05-02T08:31:13.543Z,15.52
2019-05-02T08:32:09.447Z,15.85
2019-05-02T08:33:09.507Z,16.14
2019-05-02T08:34:14.737Z,16.03
2019-05-02T08:35:09.609Z,15.52
2019-05-02T08:36:09.677Z,14.94
2019-05-02T08:37:09.713Z,15.06
2019-05-02T08:38:12.536Z,14.94
2019-05-02T08:39:09.806Z,15.05
2019-05-02T08:40:10.736Z,15.61
2019-05-02T08:41:09.930Z,16.11
2019-05-02T08:42:09.965Z,16.63
2019-05-02T08:43:10.933Z,16.74
2019-05-02T08:44:10.057Z,16.01
2019-05-02T08:45:10.126Z,15.86
2019-05-02T08:46:14.481Z,16.42
2019-05-02T08:47:18.810Z,15.81
2019-05-02T08:48:10.263Z,15.31
2019-05-02T08:49:14.239Z,15.54
2019-05-02T08:50:10.394Z,15.60
2019-05-02T08:51:10.441Z,16.18
2019-05-02T08:52:10.495Z,16.23
2019-05-02T08:53:14.252Z,16.63
2019-05-02T08:54:10.585Z,16.58
2019-05-02T08:55:11.081Z,16.40
2019-05-02T08:56:10.784Z,16.98
2019-05-02T08:57:10.722Z,17.00
2019-05-02T08:58:14.470Z,17.50
2019-05-02T08:59:10.849Z,18.10
2019-05-02T09:00:10.899Z,17.81
2019-05-02T09:01:13.726Z,17.79
2019-05-02T09:02:10.999Z,17.47
2019-05-02T09:03:11.029Z,17.47
2019-05-02T09:04:11.088Z,17.71
2019-05-02T09:05:11.151Z,17.74
2019-05-02T09:06:11.208Z,17.38
2019-05-02T09:07:11.269Z,17.53
2019-05-02T09:08:14.546Z,17.15
2019-05-02T09:09:11.339Z,16.59
2019-05-02T09:10:11.388Z,16.90
2019-05-02T09:11:14.245Z,16.98
2019-05-02T09:12:13.239Z,17.00
2019-05-02T09:13:16.955Z,17.25
2019-05-02T09:14:12.571Z,17.15
2019-05-02T09:15:11.926Z,17.17
2019-05-02T09:16:12.095Z,17.50
2019-05-02T09:17:16.184Z,18.27
2019-05-02T09:18:12.403Z,18.07
2019-05-02T09:19:13.481Z,18.12
2019-05-02T09:20:18.734Z,18.43
2019-05-02T09:21:12.937Z,18.24
2019-05-02T09:22:13.223Z,17.64
2019-05-02T09:23:12.456Z,17.38
2019-05-02T09:24:13.567Z,17.25
2019-05-02T09:25:12.593Z,17.50
2019-05-02T09:26:12.231Z,17.29
2019-05-02T09:27:12.305Z,17.64
2019-05-02T09:28:12.600Z,18.00
2019-05-02T09:29:12.654Z,17.95
2019-05-02T09:30:16.932Z,17.69
2019-05-02T09:31:12.495Z,17.73
2019-05-02T09:32:12.710Z,17.67
2019-05-02T09:33:12.582Z,17.82
2019-05-02T09:34:16.954Z,17.81
2019-05-02T09:35:12.686Z,17.92
2019-05-02T09:36:12.742Z,18.28
2019-05-02T09:37:12.808Z,18.50
2019-05-02T09:38:16.124Z,18.25
2019-05-02T09:39:12.898Z,18.10
2019-05-02T09:40:16.722Z,17.88
2019-05-02T09:41:16.881Z,17.54
2019-05-02T09:42:15.644Z,17.46
2019-05-02T09:43:13.121Z,17.64
2019-05-02T09:44:14.561Z,17.99
2019-05-02T09:45:15.931Z,18.03
2019-05-02T09:46:16.577Z,18.15
2019-05-02T09:47:13.315Z,18.28
2019-05-02T09:48:17.233Z,17.95
2019-05-02T09:49:16.395Z,18.17
2019-05-02T09:50:13.469Z,18.37
2019-05-02T09:51:17.378Z,18.64
2019-05-02T09:52:13.570Z,19.02
2019-05-02T09:53:20.884Z,19.15
2019-05-02T09:54:13.673Z,19.15
2019-05-02T09:55:13.734Z,18.92
2019-05-02T09:56:13.791Z,19.23
2019-05-02T09:57:13.834Z,19.76
2019-05-02T09:58:19.577Z,20.21
2019-05-02T09:59:26.798Z,20.49
2019-05-02T10:00:13.989Z,20.74
2019-05-02T10:01:14.041Z,20.96
2019-05-02T10:02:14.096Z,20.93
2019-05-02T10:03:14.211Z,20.05
2019-05-02T10:04:14.198Z,18.68
2019-05-02T10:05:14.259Z,17.46
2019-05-02T10:06:18.161Z,17.33
2019-05-02T10:07:15.528Z,17.79
2019-05-02T10:08:14.478Z,18.28
2019-05-02T10:09:18.577Z,18.52
2019-05-02T10:10:14.522Z,17.97
2019-05-02T10:11:16.859Z,17.03
2019-05-02T10:12:14.626Z,17.18
2019-05-02T10:13:14.704Z,17.11
2019-05-02T10:14:14.785Z,17.29
2019-05-02T10:15:14.783Z,17.71
2019-05-02T10:16:18.019Z,17.64
2019-05-02T10:17:14.888Z,17.73
2019-05-02T10:18:19.485Z,17.63
2019-05-02T10:19:15.013Z,17.57
2019-05-02T10:20:15.057Z,18.00
2019-05-02T10:21:17.155Z,18.47
2019-05-02T10:22:15.156Z,18.80
2019-05-02T10:23:19.581Z,18.70
2019-05-02T10:24:15.287Z,18.64
2019-05-02T10:25:15.299Z,18.04
2019-05-02T10:26:20.095Z,17.23
2019-05-02T10:27:15.409Z,17.03
2019-05-02T10:28:15.469Z,17.07
2019-05-02T10:29:15.549Z,17.14
2019-05-02T10:30:15.815Z,16.49
2019-05-02T10:31:15.620Z,16.62
2019-05-02T10:32:16.755Z,16.89
2019-05-02T10:33:15.725Z,16.99
2019-05-02T10:34:17.599Z,16.78
2019-05-02T10:35:15.844Z,17.07
2019-05-02T10:36:19.628Z,17.07
2019-05-02T10:37:15.940Z,16.88
2019-05-02T10:38:19.336Z,17.14
2019-05-02T10:39:16.078Z,17.53
2019-05-02T10:40:17.241Z,18.04
2019-05-02T10:41:16.228Z,17.84
2019-05-02T10:42:16.187Z,18.09
2019-05-02T10:43:16.243Z,18.07
2019-05-02T10:44:16.312Z,17.89
2019-05-02T10:45:16.800Z,17.81
2019-05-02T10:46:16.397Z,17.71
2019-05-02T10:47:16.452Z,17.46
2019-05-02T10:48:25.818Z,17.51
2019-05-02T10:49:16.586Z,17.41
2019-05-02T10:50:16.604Z,17.91
2019-05-02T10:51:16.657Z,18.17
2019-05-02T10:52:16.714Z,18.34
2019-05-02T10:53:16.762Z,18.84
2019-05-02T10:54:16.849Z,19.02
2019-05-02T10:55:16.899Z,19.15
2019-05-02T10:56:16.922Z,19.14
2019-05-02T10:57:16.975Z,19.36
2019-05-02T10:58:17.024Z,19.29
2019-05-02T10:59:17.094Z,18.98
2019-05-02T11:00:17.152Z,19.11
2019-05-02T11:01:17.182Z,19.28
2019-05-02T11:02:17.244Z,19.70
2019-05-02T11:03:17.292Z,20.21
2019-05-02T11:04:17.346Z,20.35
2019-05-02T11:05:22.583Z,20.33
2019-05-02T11:06:17.441Z,20.33
2019-05-02T11:07:22.578Z,20.34
2019-05-02T11:08:17.547Z,20.42
2019-05-02T11:09:22.512Z,20.51
2019-05-02T11:10:17.673Z,20.80
2019-05-02T11:11:17.713Z,20.80
2019-05-02T11:12:24.284Z,20.66
2019-05-02T11:13:17.845Z,20.74
2019-05-02T11:14:17.866Z,20.69
2019-05-02T11:15:17.949Z,20.66
2019-05-02T11:16:17.975Z,20.95
2019-05-02T11:17:18.226Z,20.47
2019-05-02T11:18:18.096Z,20.58
2019-05-02T11:19:18.185Z,19.73
2019-05-02T11:20:18.214Z,19.36
2019-05-02T11:21:18.872Z,19.39
2019-05-02T11:22:18.311Z,19.40
2019-05-02T11:23:18.348Z,19.21
2019-05-02T11:24:18.417Z,18.82
2019-05-02T11:25:18.474Z,18.70
2019-05-02T11:26:21.549Z,18.77
2019-05-02T11:27:18.565Z,18.84
2019-05-02T11:28:18.628Z,18.83
2019-05-02T11:29:18.671Z,19.15
2019-05-02T11:30:24.956Z,19.06
2019-05-02T11:31:18.862Z,18.67
2019-05-02T11:32:19.005Z,18.62
2019-05-02T11:33:18.943Z,18.09
2019-05-02T11:34:18.986Z,18.37
2019-05-02T11:35:19.074Z,18.76
2019-05-02T11:36:19.047Z,19.23
2019-05-02T11:37:19.100Z,19.51
2019-05-02T11:38:39.595Z,19.54
2019-05-02T11:39:26.495Z,19.58
2019-05-02T11:40:19.286Z,19.46
2019-05-02T11:41:19.337Z,19.32
2019-05-02T11:42:23.198Z,19.11
2019-05-02T11:43:19.420Z,19.13
2019-05-02T11:44:19.472Z,19.40
2019-05-02T11:45:19.524Z,19.32
2019-05-02T11:46:21.607Z,19.46
2019-05-02T11:47:24.935Z,19.28
2019-05-02T11:48:19.843Z,19.36
2019-05-02T11:49:19.736Z,19.46
2019-05-02T11:50:19.802Z,19.47
2019-05-02T11:51:19.875Z,19.65
2019-05-02T11:52:19.906Z,19.02
2019-05-02T11:53:28.875Z,19.24
2019-05-02T11:54:20.023Z,19.46
2019-05-02T11:55:24.763Z,19.63
2019-05-02T11:56:22.048Z,19.68
2019-05-02T11:57:21.305Z,19.78
2019-05-02T11:58:20.224Z,19.94
2019-05-02T11:59:27.390Z,20.05
2019-05-02T12:00:21.839Z,19.70
2019-05-02T12:01:35.019Z,19.68
2019-05-02T12:02:21.960Z,19.93
2019-05-02T12:03:21.926Z,19.79
2019-05-02T12:04:21.528Z,19.21
2019-05-02T12:05:22.188Z,18.70
2019-05-02T12:06:22.329Z,18.52
2019-05-02T12:07:22.956Z,18.79
2019-05-02T12:08:22.097Z,18.98
2019-05-02T12:09:22.309Z,19.21
2019-05-02T12:10:21.615Z,19.58
2019-05-02T12:11:22.819Z,19.72
2019-05-02T12:12:22.654Z,19.50
2019-05-02T12:13:22.654Z,19.61
2019-05-02T12:14:22.863Z,19.80
2019-05-02T12:15:21.705Z,20.05
2019-05-02T12:16:23.015Z,20.53
2019-05-02T12:17:21.755Z,20.99
2019-05-02T12:18:23.154Z,21.19
2019-05-02T12:19:22.829Z,21.46
2019-05-02T12:20:22.754Z,21.61
2019-05-02T12:21:22.858Z,21.60
2019-05-02T12:22:22.602Z,21.24
2019-05-02T12:23:22.621Z,20.83
2019-05-02T12:24:22.171Z,20.66
2019-05-02T12:25:22.360Z,21.04
2019-05-02T12:26:22.160Z,21.24
2019-05-02T12:27:22.116Z,21.59
2019-05-02T12:28:22.939Z,22.02
2019-05-02T12:29:21.923Z,22.43
2019-05-02T12:30:22.895Z,22.68
2019-05-02T12:31:22.191Z,22.94
2019-05-02T12:32:22.482Z,22.80
2019-05-02T12:33:22.544Z,22.72
2019-05-02T12:34:22.178Z,22.82
2019-05-02T12:35:22.486Z,22.93
2019-05-02T12:36:22.736Z,22.64
2019-05-02T12:37:22.372Z,22.07
2019-05-02T12:38:23.100Z,21.98
2019-05-02T12:39:22.478Z,21.79
2019-05-02T12:40:22.502Z,22.07
2019-05-02T12:41:25.057Z,22.27
2019-05-02T12:42:23.927Z,22.44
2019-05-02T12:43:22.969Z,22.52
2019-05-02T12:44:22.726Z,22.53
2019-05-02T12:45:22.796Z,22.75
2019-05-02T12:46:22.842Z,22.80
2019-05-02T12:47:22.921Z,22.87
2019-05-02T12:48:22.956Z,23.09
2019-05-02T12:49:27.681Z,23.43
2019-05-02T12:50:23.060Z,23.65
2019-05-02T12:51:23.122Z,23.77
2019-05-02T12:52:23.219Z,23.67
2019-05-02T12:53:23.312Z,23.65
2019-05-02T12:54:23.307Z,23.45
2019-05-02T12:55:23.354Z,23.40
2019-05-02T12:56:23.397Z,23.31
2019-05-02T12:57:23.479Z,23.07
2019-05-02T12:58:23.550Z,22.87
2019-05-02T12:59:23.568Z,22.68
2019-05-02T13:00:23.622Z,22.49
2019-05-02T13:01:23.677Z,22.59
2019-05-02T13:02:23.733Z,22.59
2019-05-02T13:03:23.810Z,22.72
2019-05-02T13:04:23.860Z,22.87
2019-05-02T13:05:23.901Z,22.99